sensor_id;sensor_type;location;lat;lon;timestamp;P1;durP1;ratioP1;P2;durP2;ratioP2
57341;SDS011;43175;51.002;18.316;2023-12-29T00:00:33;38.00;;;20.10;;
57341;SDS011;43175;51.002;18.316;2023-12-29T00:02:58;39.90;;;21.00;;
57341;SDS011;43175;51.002;18.316;2023-12-29T00:05:24;40.40;;;21.40;;
57341;SDS011;43175;51.002;18.316;2023-12-29T00:07:50;38.00;;;19.90;;
57341;SDS011;43175;51.002;18.316;2023-12-29T00:10:15;42.60;;;22.00;;
57341;SDS011;43175;51.002;18.316;2023-12-29T00:12:40;36.80;;;19.20;;
57341;SDS011;43175;51.002;18.316;2023-12-29T00:15:06;37.20;;;19.50;;
57341;SDS011;43175;51.002;18.316;2023-12-29T00:17:32;35.80;;;18.80;;
57341;SDS011;43175;51.002;18.316;2023-12-29T00:19:58;36.90;;;19.00;;
57341;SDS011;43175;51.002;18.316;2023-12-29T00:22:23;37.90;;;19.30;;
57341;SDS011;43175;51.002;18.316;2023-12-29T00:24:50;35.20;;;19.60;;
57341;SDS011;43175;51.002;18.316;2023-12-29T00:27:16;37.20;;;19.60;;
57341;SDS011;43175;51.002;18.316;2023-12-29T00:29:42;37.00;;;19.10;;
57341;SDS011;43175;51.002;18.316;2023-12-29T00:32:07;37.40;;;19.90;;
57341;SDS011;43175;51.002;18.316;2023-12-29T00:34:33;35.00;;;18.60;;
57341;SDS011;43175;51.002;18.316;2023-12-29T00:36:59;36.50;;;20.10;;
57341;SDS011;43175;51.002;18.316;2023-12-29T00:39:25;35.90;;;19.10;;
57341;SDS011;43175;51.002;18.316;2023-12-29T00:41:55;38.50;;;18.90;;
57341;SDS011;43175;51.002;18.316;2023-12-29T00:44:23;35.20;;;19.00;;
57341;SDS011;43175;51.002;18.316;2023-12-29T00:46:49;38.90;;;19.80;;
57341;SDS011;43175;51.002;18.316;2023-12-29T00:49:14;36.70;;;19.10;;
57341;SDS011;43175;51.002;18.316;2023-12-29T00:51:40;38.10;;;19.60;;
57341;SDS011;43175;51.002;18.316;2023-12-29T00:54:08;36.30;;;19.60;;
57341;SDS011;43175;51.002;18.316;2023-12-29T00:56:34;36.70;;;19.30;;
57341;SDS011;43175;51.002;18.316;2023-12-29T00:58:59;34.40;;;18.00;;
57341;SDS011;43175;51.002;18.316;2023-12-29T01:01:25;36.30;;;18.70;;
57341;SDS011;43175;51.002;18.316;2023-12-29T01:03:50;36.70;;;18.10;;
57341;SDS011;43175;51.002;18.316;2023-12-29T01:06:20;35.90;;;17.60;;
57341;SDS011;43175;51.002;18.316;2023-12-29T01:08:45;33.90;;;17.40;;
57341;SDS011;43175;51.002;18.316;2023-12-29T01:11:11;41.20;;;18.10;;
57341;SDS011;43175;51.002;18.316;2023-12-29T01:13:36;31.40;;;16.60;;
57341;SDS011;43175;51.002;18.316;2023-12-29T01:16:02;31.70;;;17.20;;
57341;SDS011;43175;51.002;18.316;2023-12-29T01:18:28;34.20;;;17.20;;
57341;SDS011;43175;51.002;18.316;2023-12-29T01:20:53;36.30;;;17.60;;
57341;SDS011;43175;51.002;18.316;2023-12-29T01:23:19;34.30;;;17.30;;
57341;SDS011;43175;51.002;18.316;2023-12-29T01:25:45;34.50;;;18.10;;
57341;SDS011;43175;51.002;18.316;2023-12-29T01:28:11;31.80;;;16.80;;
57341;SDS011;43175;51.002;18.316;2023-12-29T01:30:36;33.60;;;17.60;;
57341;SDS011;43175;51.002;18.316;2023-12-29T01:33:02;33.30;;;16.70;;
57341;SDS011;43175;51.002;18.316;2023-12-29T01:35:27;31.90;;;16.10;;
57341;SDS011;43175;51.002;18.316;2023-12-29T01:37:53;30.50;;;16.30;;
57341;SDS011;43175;51.002;18.316;2023-12-29T01:40:20;33.90;;;17.70;;
57341;SDS011;43175;51.002;18.316;2023-12-29T01:42:46;31.10;;;17.40;;
57341;SDS011;43175;51.002;18.316;2023-12-29T01:45:20;35.00;;;17.30;;
57341;SDS011;43175;51.002;18.316;2023-12-29T01:47:47;34.20;;;17.50;;
57341;SDS011;43175;51.002;18.316;2023-12-29T01:50:13;32.20;;;17.10;;
57341;SDS011;43175;51.002;18.316;2023-12-29T01:52:38;32.50;;;15.80;;
57341;SDS011;43175;51.002;18.316;2023-12-29T01:55:04;32.40;;;16.00;;
57341;SDS011;43175;51.002;18.316;2023-12-29T01:57:30;31.90;;;15.20;;
57341;SDS011;43175;51.002;18.316;2023-12-29T01:59:55;30.20;;;15.60;;
57341;SDS011;43175;51.002;18.316;2023-12-29T02:02:21;31.10;;;15.30;;
57341;SDS011;43175;51.002;18.316;2023-12-29T02:04:46;32.70;;;16.30;;
57341;SDS011;43175;51.002;18.316;2023-12-29T02:07:12;31.40;;;15.80;;
57341;SDS011;43175;51.002;18.316;2023-12-29T02:09:38;31.10;;;15.70;;
57341;SDS011;43175;51.002;18.316;2023-12-29T02:12:04;30.10;;;14.60;;
57341;SDS011;43175;51.002;18.316;2023-12-29T02:14:30;30.80;;;15.50;;
57341;SDS011;43175;51.002;18.316;2023-12-29T02:17:01;30.90;;;15.70;;
57341;SDS011;43175;51.002;18.316;2023-12-29T02:19:40;28.90;;;15.20;;
57341;SDS011;43175;51.002;18.316;2023-12-29T02:22:06;29.60;;;15.20;;
57341;SDS011;43175;51.002;18.316;2023-12-29T02:24:35;28.80;;;14.90;;
57341;SDS011;43175;51.002;18.316;2023-12-29T02:29:30;28.80;;;14.70;;
57341;SDS011;43175;51.002;18.316;2023-12-29T02:31:56;30.40;;;15.50;;
57341;SDS011;43175;51.002;18.316;2023-12-29T02:34:24;27.80;;;14.40;;
57341;SDS011;43175;51.002;18.316;2023-12-29T02:36:50;26.40;;;14.30;;
57341;SDS011;43175;51.002;18.316;2023-12-29T02:39:16;30.30;;;15.10;;
57341;SDS011;43175;51.002;18.316;2023-12-29T02:41:42;30.90;;;15.50;;
57341;SDS011;43175;51.002;18.316;2023-12-29T02:44:07;29.80;;;14.50;;
57341;SDS011;43175;51.002;18.316;2023-12-29T02:46:33;30.20;;;15.20;;
57341;SDS011;43175;51.002;18.316;2023-12-29T02:48:58;29.20;;;14.50;;
57341;SDS011;43175;51.002;18.316;2023-12-29T02:51:24;30.20;;;15.00;;
57341;SDS011;43175;51.002;18.316;2023-12-29T02:53:50;28.40;;;15.30;;
57341;SDS011;43175;51.002;18.316;2023-12-29T02:56:16;30.50;;;15.30;;
57341;SDS011;43175;51.002;18.316;2023-12-29T02:58:41;30.90;;;15.20;;
57341;SDS011;43175;51.002;18.316;2023-12-29T03:01:06;29.00;;;15.40;;
57341;SDS011;43175;51.002;18.316;2023-12-29T03:03:32;29.30;;;14.80;;
57341;SDS011;43175;51.002;18.316;2023-12-29T03:05:57;30.50;;;14.90;;
57341;SDS011;43175;51.002;18.316;2023-12-29T03:08:23;30.40;;;14.10;;
57341;SDS011;43175;51.002;18.316;2023-12-29T03:10:48;29.80;;;14.80;;
57341;SDS011;43175;51.002;18.316;2023-12-29T03:13:14;28.40;;;14.20;;
57341;SDS011;43175;51.002;18.316;2023-12-29T03:15:39;29.40;;;14.10;;
57341;SDS011;43175;51.002;18.316;2023-12-29T03:18:05;30.90;;;15.10;;
57341;SDS011;43175;51.002;18.316;2023-12-29T03:20:31;26.40;;;14.30;;
57341;SDS011;43175;51.002;18.316;2023-12-29T03:22:56;29.50;;;14.40;;
57341;SDS011;43175;51.002;18.316;2023-12-29T03:25:22;28.70;;;14.50;;
57341;SDS011;43175;51.002;18.316;2023-12-29T03:27:48;33.00;;;15.30;;
57341;SDS011;43175;51.002;18.316;2023-12-29T03:30:13;28.40;;;14.40;;
57341;SDS011;43175;51.002;18.316;2023-12-29T03:32:38;29.20;;;14.90;;
57341;SDS011;43175;51.002;18.316;2023-12-29T03:35:04;30.60;;;14.90;;
57341;SDS011;43175;51.002;18.316;2023-12-29T03:37:30;28.80;;;14.90;;
57341;SDS011;43175;51.002;18.316;2023-12-29T03:39:55;28.70;;;14.40;;
57341;SDS011;43175;51.002;18.316;2023-12-29T03:42:21;27.00;;;13.90;;
57341;SDS011;43175;51.002;18.316;2023-12-29T03:44:46;28.10;;;14.60;;
57341;SDS011;43175;51.002;18.316;2023-12-29T03:47:12;26.70;;;13.70;;
57341;SDS011;43175;51.002;18.316;2023-12-29T03:49:37;30.90;;;14.20;;
57341;SDS011;43175;51.002;18.316;2023-12-29T03:52:03;30.30;;;14.60;;
57341;SDS011;43175;51.002;18.316;2023-12-29T03:54:28;27.00;;;14.10;;
57341;SDS011;43175;51.002;18.316;2023-12-29T03:56:54;26.60;;;13.90;;
57341;SDS011;43175;51.002;18.316;2023-12-29T03:59:19;26.60;;;13.90;;
57341;SDS011;43175;51.002;18.316;2023-12-29T04:01:45;27.50;;;13.90;;
57341;SDS011;43175;51.002;18.316;2023-12-29T04:04:10;26.90;;;13.70;;
57341;SDS011;43175;51.002;18.316;2023-12-29T04:06:36;27.80;;;14.10;;
57341;SDS011;43175;51.002;18.316;2023-12-29T04:09:01;27.90;;;13.30;;
57341;SDS011;43175;51.002;18.316;2023-12-29T04:11:27;29.30;;;13.30;;
57341;SDS011;43175;51.002;18.316;2023-12-29T04:13:53;26.60;;;13.70;;
57341;SDS011;43175;51.002;18.316;2023-12-29T04:16:18;25.20;;;13.10;;
57341;SDS011;43175;51.002;18.316;2023-12-29T04:18:44;24.80;;;13.10;;
57341;SDS011;43175;51.002;18.316;2023-12-29T04:21:13;26.00;;;12.60;;
57341;SDS011;43175;51.002;18.316;2023-12-29T04:23:39;24.80;;;12.50;;
57341;SDS011;43175;51.002;18.316;2023-12-29T04:26:07;23.80;;;11.40;;
57341;SDS011;43175;51.002;18.316;2023-12-29T04:28:32;23.00;;;11.40;;
57341;SDS011;43175;51.002;18.316;2023-12-29T04:30:58;22.90;;;11.50;;
57341;SDS011;43175;51.002;18.316;2023-12-29T04:33:23;23.30;;;11.80;;
57341;SDS011;43175;51.002;18.316;2023-12-29T04:35:49;21.80;;;11.20;;
57341;SDS011;43175;51.002;18.316;2023-12-29T04:38:14;22.30;;;11.10;;
57341;SDS011;43175;51.002;18.316;2023-12-29T04:40:42;23.10;;;11.30;;
57341;SDS011;43175;51.002;18.316;2023-12-29T04:43:07;22.60;;;11.30;;
57341;SDS011;43175;51.002;18.316;2023-12-29T04:45:33;21.40;;;10.90;;
57341;SDS011;43175;51.002;18.316;2023-12-29T04:47:58;22.60;;;11.10;;
57341;SDS011;43175;51.002;18.316;2023-12-29T04:50:24;21.20;;;10.80;;
57341;SDS011;43175;51.002;18.316;2023-12-29T04:52:49;22.60;;;11.20;;
57341;SDS011;43175;51.002;18.316;2023-12-29T04:55:15;21.40;;;11.00;;
57341;SDS011;43175;51.002;18.316;2023-12-29T04:57:40;20.20;;;9.90;;
57341;SDS011;43175;51.002;18.316;2023-12-29T05:00:06;19.10;;;10.00;;
57341;SDS011;43175;51.002;18.316;2023-12-29T05:02:32;19.10;;;10.10;;
57341;SDS011;43175;51.002;18.316;2023-12-29T05:04:57;18.40;;;9.90;;
57341;SDS011;43175;51.002;18.316;2023-12-29T05:07:23;19.80;;;10.10;;
57341;SDS011;43175;51.002;18.316;2023-12-29T05:09:49;19.30;;;10.60;;
57341;SDS011;43175;51.002;18.316;2023-12-29T05:12:14;20.00;;;10.20;;
57341;SDS011;43175;51.002;18.316;2023-12-29T05:14:40;20.20;;;10.10;;
57341;SDS011;43175;51.002;18.316;2023-12-29T05:17:06;21.00;;;10.20;;
57341;SDS011;43175;51.002;18.316;2023-12-29T05:19:31;19.40;;;9.80;;
57341;SDS011;43175;51.002;18.316;2023-12-29T05:21:57;21.10;;;10.70;;
57341;SDS011;43175;51.002;18.316;2023-12-29T05:24:22;20.10;;;10.10;;
57341;SDS011;43175;51.002;18.316;2023-12-29T05:26:48;21.80;;;11.00;;
57341;SDS011;43175;51.002;18.316;2023-12-29T05:29:13;21.20;;;11.10;;
57341;SDS011;43175;51.002;18.316;2023-12-29T05:31:39;21.20;;;10.40;;
57341;SDS011;43175;51.002;18.316;2023-12-29T05:34:04;20.10;;;10.90;;
57341;SDS011;43175;51.002;18.316;2023-12-29T05:36:30;21.60;;;11.00;;
57341;SDS011;43175;51.002;18.316;2023-12-29T05:38:59;20.00;;;11.00;;
57341;SDS011;43175;51.002;18.316;2023-12-29T05:41:25;19.50;;;10.80;;
57341;SDS011;43175;51.002;18.316;2023-12-29T05:43:50;21.30;;;11.10;;
57341;SDS011;43175;51.002;18.316;2023-12-29T05:46:16;22.70;;;11.30;;
57341;SDS011;43175;51.002;18.316;2023-12-29T05:48:41;22.80;;;11.50;;
57341;SDS011;43175;51.002;18.316;2023-12-29T05:51:08;23.80;;;11.70;;
57341;SDS011;43175;51.002;18.316;2023-12-29T05:53:34;20.50;;;10.60;;
57341;SDS011;43175;51.002;18.316;2023-12-29T05:56:00;21.50;;;11.20;;
57341;SDS011;43175;51.002;18.316;2023-12-29T05:58:25;22.30;;;11.70;;
57341;SDS011;43175;51.002;18.316;2023-12-29T06:00:51;21.90;;;11.60;;
57341;SDS011;43175;51.002;18.316;2023-12-29T06:03:16;22.50;;;11.10;;
57341;SDS011;43175;51.002;18.316;2023-12-29T06:05:42;21.50;;;11.10;;
57341;SDS011;43175;51.002;18.316;2023-12-29T06:08:07;23.50;;;11.60;;
57341;SDS011;43175;51.002;18.316;2023-12-29T06:10:33;23.50;;;11.90;;
57341;SDS011;43175;51.002;18.316;2023-12-29T06:13:00;23.30;;;11.90;;
57341;SDS011;43175;51.002;18.316;2023-12-29T06:15:26;22.70;;;11.90;;
57341;SDS011;43175;51.002;18.316;2023-12-29T06:17:51;23.40;;;12.00;;
57341;SDS011;43175;51.002;18.316;2023-12-29T06:20:17;22.10;;;11.50;;
57341;SDS011;43175;51.002;18.316;2023-12-29T06:22:42;20.50;;;11.30;;
57341;SDS011;43175;51.002;18.316;2023-12-29T06:25:12;23.60;;;12.40;;
57341;SDS011;43175;51.002;18.316;2023-12-29T06:27:38;23.90;;;12.80;;
57341;SDS011;43175;51.002;18.316;2023-12-29T06:30:06;22.80;;;11.90;;
57341;SDS011;43175;51.002;18.316;2023-12-29T06:32:32;24.80;;;12.50;;
57341;SDS011;43175;51.002;18.316;2023-12-29T06:34:57;24.00;;;12.50;;
57341;SDS011;43175;51.002;18.316;2023-12-29T06:37:23;23.40;;;12.00;;
57341;SDS011;43175;51.002;18.316;2023-12-29T06:39:48;23.60;;;12.30;;
57341;SDS011;43175;51.002;18.316;2023-12-29T06:42:14;25.80;;;12.90;;
57341;SDS011;43175;51.002;18.316;2023-12-29T06:44:39;23.80;;;13.00;;
57341;SDS011;43175;51.002;18.316;2023-12-29T06:47:05;24.90;;;12.10;;
57341;SDS011;43175;51.002;18.316;2023-12-29T06:49:34;25.10;;;13.30;;
57341;SDS011;43175;51.002;18.316;2023-12-29T06:52:00;26.70;;;13.20;;
57341;SDS011;43175;51.002;18.316;2023-12-29T06:54:26;25.60;;;13.10;;
57341;SDS011;43175;51.002;18.316;2023-12-29T06:56:51;26.00;;;13.70;;
57341;SDS011;43175;51.002;18.316;2023-12-29T06:59:17;23.40;;;13.10;;
57341;SDS011;43175;51.002;18.316;2023-12-29T07:01:45;26.70;;;14.40;;
57341;SDS011;43175;51.002;18.316;2023-12-29T07:04:11;27.90;;;14.00;;
57341;SDS011;43175;51.002;18.316;2023-12-29T07:06:37;26.60;;;13.90;;
57341;SDS011;43175;51.002;18.316;2023-12-29T07:09:03;26.50;;;13.60;;
57341;SDS011;43175;51.002;18.316;2023-12-29T07:11:29;26.40;;;14.20;;
57341;SDS011;43175;51.002;18.316;2023-12-29T07:13:54;34.90;;;18.10;;
57341;SDS011;43175;51.002;18.316;2023-12-29T07:16:20;28.70;;;15.30;;
57341;SDS011;43175;51.002;18.316;2023-12-29T07:18:46;32.80;;;16.90;;
57341;SDS011;43175;51.002;18.316;2023-12-29T07:21:12;33.60;;;19.60;;
57341;SDS011;43175;51.002;18.316;2023-12-29T07:23:38;28.30;;;15.70;;
57341;SDS011;43175;51.002;18.316;2023-12-29T07:26:04;27.90;;;15.10;;
57341;SDS011;43175;51.002;18.316;2023-12-29T07:28:31;30.60;;;17.40;;
57341;SDS011;43175;51.002;18.316;2023-12-29T07:30:56;29.40;;;17.20;;
57341;SDS011;43175;51.002;18.316;2023-12-29T07:33:22;30.60;;;15.20;;
57341;SDS011;43175;51.002;18.316;2023-12-29T07:35:49;28.10;;;15.40;;
57341;SDS011;43175;51.002;18.316;2023-12-29T07:38:15;29.30;;;16.10;;
57341;SDS011;43175;51.002;18.316;2023-12-29T07:40:40;32.90;;;16.30;;
57341;SDS011;43175;51.002;18.316;2023-12-29T07:43:06;27.90;;;15.20;;
57341;SDS011;43175;51.002;18.316;2023-12-29T07:45:32;29.10;;;15.90;;
57341;SDS011;43175;51.002;18.316;2023-12-29T07:47:57;27.80;;;14.90;;
57341;SDS011;43175;51.002;18.316;2023-12-29T07:50:22;27.60;;;14.40;;
57341;SDS011;43175;51.002;18.316;2023-12-29T07:52:48;27.50;;;14.10;;
57341;SDS011;43175;51.002;18.316;2023-12-29T07:55:14;26.90;;;15.20;;
57341;SDS011;43175;51.002;18.316;2023-12-29T07:57:42;29.30;;;15.00;;
57341;SDS011;43175;51.002;18.316;2023-12-29T08:00:08;25.90;;;14.10;;
57341;SDS011;43175;51.002;18.316;2023-12-29T08:02:34;25.20;;;14.10;;
57341;SDS011;43175;51.002;18.316;2023-12-29T08:05:00;25.20;;;13.60;;
57341;SDS011;43175;51.002;18.316;2023-12-29T08:07:26;27.00;;;14.30;;
57341;SDS011;43175;51.002;18.316;2023-12-29T08:09:52;24.40;;;13.90;;
57341;SDS011;43175;51.002;18.316;2023-12-29T08:12:17;27.00;;;13.90;;
57341;SDS011;43175;51.002;18.316;2023-12-29T08:14:43;26.50;;;14.10;;
57341;SDS011;43175;51.002;18.316;2023-12-29T08:17:08;25.80;;;13.80;;
57341;SDS011;43175;51.002;18.316;2023-12-29T08:19:34;24.80;;;13.90;;
57341;SDS011;43175;51.002;18.316;2023-12-29T08:21:59;25.70;;;14.10;;
57341;SDS011;43175;51.002;18.316;2023-12-29T08:24:25;25.50;;;14.70;;
57341;SDS011;43175;51.002;18.316;2023-12-29T08:26:50;25.30;;;13.90;;
57341;SDS011;43175;51.002;18.316;2023-12-29T08:29:16;27.50;;;15.20;;
57341;SDS011;43175;51.002;18.316;2023-12-29T08:31:43;27.20;;;15.10;;
57341;SDS011;43175;51.002;18.316;2023-12-29T08:34:09;26.40;;;13.70;;
57341;SDS011;43175;51.002;18.316;2023-12-29T08:36:34;23.70;;;12.90;;
57341;SDS011;43175;51.002;18.316;2023-12-29T08:39:01;23.60;;;12.90;;
57341;SDS011;43175;51.002;18.316;2023-12-29T08:41:27;23.00;;;13.10;;
57341;SDS011;43175;51.002;18.316;2023-12-29T08:43:52;23.60;;;12.60;;
57341;SDS011;43175;51.002;18.316;2023-12-29T08:46:19;22.80;;;12.30;;
57341;SDS011;43175;51.002;18.316;2023-12-29T08:48:45;25.00;;;14.20;;
57341;SDS011;43175;51.002;18.316;2023-12-29T08:51:11;24.70;;;14.10;;
57341;SDS011;43175;51.002;18.316;2023-12-29T08:53:37;21.10;;;11.60;;
57341;SDS011;43175;51.002;18.316;2023-12-29T08:56:02;20.90;;;11.20;;
57341;SDS011;43175;51.002;18.316;2023-12-29T08:58:28;21.00;;;11.40;;
57341;SDS011;43175;51.002;18.316;2023-12-29T09:00:54;23.30;;;13.40;;
57341;SDS011;43175;51.002;18.316;2023-12-29T09:03:20;20.10;;;10.60;;
57341;SDS011;43175;51.002;18.316;2023-12-29T09:05:45;18.30;;;10.40;;
57341;SDS011;43175;51.002;18.316;2023-12-29T09:08:11;19.50;;;9.90;;
57341;SDS011;43175;51.002;18.316;2023-12-29T09:10:36;20.90;;;10.80;;
57341;SDS011;43175;51.002;18.316;2023-12-29T09:13:01;22.70;;;12.20;;
57341;SDS011;43175;51.002;18.316;2023-12-29T09:15:27;22.50;;;12.10;;
57341;SDS011;43175;51.002;18.316;2023-12-29T09:17:52;21.60;;;11.90;;
57341;SDS011;43175;51.002;18.316;2023-12-29T09:20:18;18.70;;;9.40;;
57341;SDS011;43175;51.002;18.316;2023-12-29T09:22:43;17.70;;;8.80;;
57341;SDS011;43175;51.002;18.316;2023-12-29T09:25:09;15.60;;;7.90;;
57341;SDS011;43175;51.002;18.316;2023-12-29T09:27:34;15.20;;;7.60;;
57341;SDS011;43175;51.002;18.316;2023-12-29T09:29:59;14.80;;;7.70;;
57341;SDS011;43175;51.002;18.316;2023-12-29T09:32:25;19.50;;;10.00;;
57341;SDS011;43175;51.002;18.316;2023-12-29T09:34:51;17.00;;;8.40;;
57341;SDS011;43175;51.002;18.316;2023-12-29T09:37:17;15.30;;;7.30;;
57341;SDS011;43175;51.002;18.316;2023-12-29T09:39:43;17.60;;;9.60;;
57341;SDS011;43175;51.002;18.316;2023-12-29T09:42:08;21.00;;;11.20;;
57341;SDS011;43175;51.002;18.316;2023-12-29T09:44:36;15.60;;;7.60;;
57341;SDS011;43175;51.002;18.316;2023-12-29T09:47:03;14.40;;;7.20;;
57341;SDS011;43175;51.002;18.316;2023-12-29T09:49:46;14.30;;;6.40;;
57341;SDS011;43175;51.002;18.316;2023-12-29T09:52:12;12.10;;;5.70;;
57341;SDS011;43175;51.002;18.316;2023-12-29T09:54:38;13.20;;;5.60;;
57341;SDS011;43175;51.002;18.316;2023-12-29T09:57:04;12.90;;;5.70;;
57341;SDS011;43175;51.002;18.316;2023-12-29T09:59:32;12.80;;;5.60;;
57341;SDS011;43175;51.002;18.316;2023-12-29T10:02:02;12.90;;;5.00;;
57341;SDS011;43175;51.002;18.316;2023-12-29T10:04:29;12.30;;;5.20;;
57341;SDS011;43175;51.002;18.316;2023-12-29T10:06:54;12.90;;;5.80;;
57341;SDS011;43175;51.002;18.316;2023-12-29T10:09:21;12.20;;;5.20;;
57341;SDS011;43175;51.002;18.316;2023-12-29T10:11:48;12.50;;;5.50;;
57341;SDS011;43175;51.002;18.316;2023-12-29T10:14:48;12.40;;;5.40;;
57341;SDS011;43175;51.002;18.316;2023-12-29T10:17:03;13.00;;;5.40;;
57341;SDS011;43175;51.002;18.316;2023-12-29T10:19:39;15.60;;;7.30;;
57341;SDS011;43175;51.002;18.316;2023-12-29T10:22:12;12.80;;;6.10;;
57341;SDS011;43175;51.002;18.316;2023-12-29T10:24:40;12.10;;;5.40;;
57341;SDS011;43175;51.002;18.316;2023-12-29T10:27:09;13.60;;;5.70;;
57341;SDS011;43175;51.002;18.316;2023-12-29T10:29:34;11.10;;;4.80;;
57341;SDS011;43175;51.002;18.316;2023-12-29T10:32:00;11.30;;;4.90;;
57341;SDS011;43175;51.002;18.316;2023-12-29T10:34:25;12.20;;;4.80;;
57341;SDS011;43175;51.002;18.316;2023-12-29T10:36:55;11.20;;;4.80;;
57341;SDS011;43175;51.002;18.316;2023-12-29T10:39:21;12.40;;;5.10;;
57341;SDS011;43175;51.002;18.316;2023-12-29T10:41:46;11.70;;;5.00;;
57341;SDS011;43175;51.002;18.316;2023-12-29T10:44:12;13.00;;;5.70;;
57341;SDS011;43175;51.002;18.316;2023-12-29T10:46:37;12.60;;;5.10;;
57341;SDS011;43175;51.002;18.316;2023-12-29T10:49:06;12.60;;;5.10;;
57341;SDS011;43175;51.002;18.316;2023-12-29T10:51:33;11.90;;;4.80;;
57341;SDS011;43175;51.002;18.316;2023-12-29T10:53:58;12.50;;;5.20;;
57341;SDS011;43175;51.002;18.316;2023-12-29T10:56:24;12.70;;;5.00;;
57341;SDS011;43175;51.002;18.316;2023-12-29T10:58:59;12.60;;;5.00;;
57341;SDS011;43175;51.002;18.316;2023-12-29T11:01:25;11.00;;;5.00;;
57341;SDS011;43175;51.002;18.316;2023-12-29T11:04:06;11.60;;;4.90;;
57341;SDS011;43175;51.002;18.316;2023-12-29T11:06:42;11.40;;;5.00;;
57341;SDS011;43175;51.002;18.316;2023-12-29T11:09:10;43.60;;;27.10;;
57341;SDS011;43175;51.002;18.316;2023-12-29T11:11:36;101.40;;;85.70;;
57341;SDS011;43175;51.002;18.316;2023-12-29T11:14:02;58.70;;;49.40;;
57341;SDS011;43175;51.002;18.316;2023-12-29T11:16:29;27.90;;;22.70;;
57341;SDS011;43175;51.002;18.316;2023-12-29T11:18:56;14.40;;;6.80;;
57341;SDS011;43175;51.002;18.316;2023-12-29T11:21:21;11.60;;;4.50;;
57341;SDS011;43175;51.002;18.316;2023-12-29T11:23:48;11.20;;;4.30;;
57341;SDS011;43175;51.002;18.316;2023-12-29T11:26:13;10.80;;;4.10;;
57341;SDS011;43175;51.002;18.316;2023-12-29T11:28:39;9.60;;;3.60;;
57341;SDS011;43175;51.002;18.316;2023-12-29T11:31:05;12.70;;;5.70;;
57341;SDS011;43175;51.002;18.316;2023-12-29T11:33:33;14.10;;;5.40;;
57341;SDS011;43175;51.002;18.316;2023-12-29T11:36:05;15.00;;;8.40;;
57341;SDS011;43175;51.002;18.316;2023-12-29T11:38:38;51.50;;;19.90;;
57341;SDS011;43175;51.002;18.316;2023-12-29T11:43:44;21.80;;;11.60;;
57341;SDS011;43175;51.002;18.316;2023-12-29T11:48:55;34.10;;;15.20;;
57341;SDS011;43175;51.002;18.316;2023-12-29T11:51:33;20.10;;;8.60;;
57341;SDS011;43175;51.002;18.316;2023-12-29T11:54:03;19.20;;;7.90;;
57341;SDS011;43175;51.002;18.316;2023-12-29T11:56:30;13.70;;;8.00;;
57341;SDS011;43175;51.002;18.316;2023-12-29T11:59:06;36.00;;;16.40;;
57341;SDS011;43175;51.002;18.316;2023-12-29T12:01:37;17.10;;;7.20;;
57341;SDS011;43175;51.002;18.316;2023-12-29T12:04:02;14.80;;;6.20;;
57341;SDS011;43175;51.002;18.316;2023-12-29T12:06:37;14.60;;;6.60;;
57341;SDS011;43175;51.002;18.316;2023-12-29T12:09:15;14.80;;;6.50;;
57341;SDS011;43175;51.002;18.316;2023-12-29T12:11:41;14.30;;;6.70;;
57341;SDS011;43175;51.002;18.316;2023-12-29T12:14:07;13.90;;;5.60;;
57341;SDS011;43175;51.002;18.316;2023-12-29T12:19:13;26.70;;;10.50;;
57341;SDS011;43175;51.002;18.316;2023-12-29T12:21:38;20.10;;;7.80;;
57341;SDS011;43175;51.002;18.316;2023-12-29T12:24:05;16.00;;;7.40;;
57341;SDS011;43175;51.002;18.316;2023-12-29T12:26:31;17.80;;;7.50;;
57341;SDS011;43175;51.002;18.316;2023-12-29T12:28:57;12.70;;;5.30;;
57341;SDS011;43175;51.002;18.316;2023-12-29T12:31:22;14.70;;;5.60;;
57341;SDS011;43175;51.002;18.316;2023-12-29T12:33:54;13.50;;;5.40;;
57341;SDS011;43175;51.002;18.316;2023-12-29T12:36:20;13.70;;;4.90;;
57341;SDS011;43175;51.002;18.316;2023-12-29T12:41:17;14.00;;;5.40;;
57341;SDS011;43175;51.002;18.316;2023-12-29T12:43:45;14.50;;;5.70;;
57341;SDS011;43175;51.002;18.316;2023-12-29T12:46:14;13.30;;;4.50;;
57341;SDS011;43175;51.002;18.316;2023-12-29T12:48:41;10.90;;;4.40;;
57341;SDS011;43175;51.002;18.316;2023-12-29T12:51:09;12.50;;;6.00;;
57341;SDS011;43175;51.002;18.316;2023-12-29T12:53:37;11.20;;;4.70;;
57341;SDS011;43175;51.002;18.316;2023-12-29T12:56:04;11.20;;;4.60;;
57341;SDS011;43175;51.002;18.316;2023-12-29T12:58:30;11.70;;;4.70;;
57341;SDS011;43175;51.002;18.316;2023-12-29T13:00:56;10.60;;;4.50;;
57341;SDS011;43175;51.002;18.316;2023-12-29T13:03:22;12.00;;;4.60;;
57341;SDS011;43175;51.002;18.316;2023-12-29T13:05:48;12.10;;;5.50;;
57341;SDS011;43175;51.002;18.316;2023-12-29T13:08:13;13.80;;;5.70;;
57341;SDS011;43175;51.002;18.316;2023-12-29T13:10:42;11.80;;;5.30;;
57341;SDS011;43175;51.002;18.316;2023-12-29T13:13:08;10.10;;;4.20;;
57341;SDS011;43175;51.002;18.316;2023-12-29T13:15:34;12.10;;;4.90;;
57341;SDS011;43175;51.002;18.316;2023-12-29T13:18:00;14.50;;;5.10;;
57341;SDS011;43175;51.002;18.316;2023-12-29T13:20:25;14.30;;;5.50;;
57341;SDS011;43175;51.002;18.316;2023-12-29T13:22:50;11.90;;;4.40;;
57341;SDS011;43175;51.002;18.316;2023-12-29T13:25:25;12.70;;;4.40;;
57341;SDS011;43175;51.002;18.316;2023-12-29T13:27:53;12.00;;;4.60;;
57341;SDS011;43175;51.002;18.316;2023-12-29T13:30:19;10.80;;;4.40;;
57341;SDS011;43175;51.002;18.316;2023-12-29T13:32:45;10.10;;;4.10;;
57341;SDS011;43175;51.002;18.316;2023-12-29T13:35:17;11.40;;;4.20;;
57341;SDS011;43175;51.002;18.316;2023-12-29T13:37:48;10.90;;;4.60;;
57341;SDS011;43175;51.002;18.316;2023-12-29T13:40:16;11.40;;;4.50;;
57341;SDS011;43175;51.002;18.316;2023-12-29T13:42:43;11.50;;;4.50;;
57341;SDS011;43175;51.002;18.316;2023-12-29T13:45:10;11.50;;;4.30;;
57341;SDS011;43175;51.002;18.316;2023-12-29T13:47:37;11.10;;;4.30;;
57341;SDS011;43175;51.002;18.316;2023-12-29T13:50:03;11.20;;;4.10;;
57341;SDS011;43175;51.002;18.316;2023-12-29T13:52:29;10.00;;;3.90;;
57341;SDS011;43175;51.002;18.316;2023-12-29T13:54:55;15.80;;;7.40;;
57341;SDS011;43175;51.002;18.316;2023-12-29T13:57:33;14.70;;;6.10;;
57341;SDS011;43175;51.002;18.316;2023-12-29T14:02:44;19.20;;;9.70;;
57341;SDS011;43175;51.002;18.316;2023-12-29T14:05:20;26.70;;;15.40;;
57341;SDS011;43175;51.002;18.316;2023-12-29T14:10:37;15.30;;;8.00;;
57341;SDS011;43175;51.002;18.316;2023-12-29T14:13:09;60.70;;;44.30;;
57341;SDS011;43175;51.002;18.316;2023-12-29T14:15:36;23.60;;;15.70;;
57341;SDS011;43175;51.002;18.316;2023-12-29T14:18:04;22.10;;;16.10;;
57341;SDS011;43175;51.002;18.316;2023-12-29T14:20:34;26.90;;;19.50;;
57341;SDS011;43175;51.002;18.316;2023-12-29T14:23:01;37.10;;;15.80;;
57341;SDS011;43175;51.002;18.316;2023-12-29T14:25:26;25.50;;;12.10;;
57341;SDS011;43175;51.002;18.316;2023-12-29T14:27:52;18.00;;;9.80;;